Longtown, Mississippi
Current Conditions -  °F | °C
As of 10:15 AM on Monday 24 Nov 2014 (Local Time) from KUTA Reporting Station
Clear Clear  
Wind Chill: 52°   Ceiling: Unl
Heat Index: 52°   Visibility: 10mi
Dew Point: 37°   Wind: 17mph
Humidity: 58%   Direction: 290°WNW
Pressure: 29.91"   Gusts: 22mph
Location:  34.6036°N, 90.124°W
Report Text: KUTA 241615Z AUTO 29015G19KT 10SM CLR 11/03 A2991 RMK AO2
Loading
Personal Weather Stations






























Interactive Weather Map New forecast layout! Learn more

10-Day Weather Forecast

Advertisements
Track Severe Weather on mobile